sensor_id;sensor_type;location;lat;lon;timestamp;P1;durP1;ratioP1;P2;durP2;ratioP2
9186;SDS011;7273;48.902;9.410;2023-07-20T00:02:20;843.60;;;231.93;;
9186;SDS011;7273;48.902;9.410;2023-07-20T00:04:45;802.85;;;222.95;;
9186;SDS011;7273;48.902;9.410;2023-07-20T00:07:11;862.42;;;240.98;;
9186;SDS011;7273;48.902;9.410;2023-07-20T00:09:36;792.85;;;219.65;;
9186;SDS011;7273;48.902;9.410;2023-07-20T00:12:02;826.63;;;232.00;;
9186;SDS011;7273;48.902;9.410;2023-07-20T00:14:28;875.42;;;244.57;;
9186;SDS011;7273;48.902;9.410;2023-07-20T00:16:54;898.25;;;251.57;;
9186;SDS011;7273;48.902;9.410;2023-07-20T00:19:24;897.03;;;252.13;;
9186;SDS011;7273;48.902;9.410;2023-07-20T00:21:50;919.67;;;257.98;;
9186;SDS011;7273;48.902;9.410;2023-07-20T00:24:16;933.80;;;261.95;;
9186;SDS011;7273;48.902;9.410;2023-07-20T00:26:42;950.42;;;266.27;;
9186;SDS011;7273;48.902;9.410;2023-07-20T00:29:07;898.38;;;250.45;;
9186;SDS011;7273;48.902;9.410;2023-07-20T00:31:33;829.58;;;227.38;;
9186;SDS011;7273;48.902;9.410;2023-07-20T00:34:00;814.88;;;225.50;;
9186;SDS011;7273;48.902;9.410;2023-07-20T00:36:25;832.72;;;229.90;;
9186;SDS011;7273;48.902;9.410;2023-07-20T00:38:51;848.20;;;231.77;;
9186;SDS011;7273;48.902;9.410;2023-07-20T00:41:16;749.63;;;207.45;;
9186;SDS011;7273;48.902;9.410;2023-07-20T00:43:42;668.85;;;183.73;;
9186;SDS011;7273;48.902;9.410;2023-07-20T00:46:08;519.60;;;146.35;;
9186;SDS011;7273;48.902;9.410;2023-07-20T00:48:34;461.30;;;132.00;;
9186;SDS011;7273;48.902;9.410;2023-07-20T00:51:00;401.40;;;119.03;;
9186;SDS011;7273;48.902;9.410;2023-07-20T00:53:27;331.92;;;106.15;;
9186;SDS011;7273;48.902;9.410;2023-07-20T00:55:53;340.05;;;107.72;;
9186;SDS011;7273;48.902;9.410;2023-07-20T00:58:19;340.33;;;108.25;;
9186;SDS011;7273;48.902;9.410;2023-07-20T01:00:46;333.17;;;106.43;;
9186;SDS011;7273;48.902;9.410;2023-07-20T01:03:13;314.33;;;101.40;;
9186;SDS011;7273;48.902;9.410;2023-07-20T01:05:47;315.50;;;103.18;;
9186;SDS011;7273;48.902;9.410;2023-07-20T01:11:18;299.23;;;100.72;;
9186;SDS011;7273;48.902;9.410;2023-07-20T01:13:56;310.50;;;102.03;;
9186;SDS011;7273;48.902;9.410;2023-07-20T01:16:23;293.48;;;99.68;;
9186;SDS011;7273;48.902;9.410;2023-07-20T01:18:49;323.13;;;104.80;;
9186;SDS011;7273;48.902;9.410;2023-07-20T01:21:18;293.45;;;98.95;;
9186;SDS011;7273;48.902;9.410;2023-07-20T01:26:34;299.38;;;100.38;;
9186;SDS011;7273;48.902;9.410;2023-07-20T01:31:37;324.17;;;104.28;;
9186;SDS011;7273;48.902;9.410;2023-07-20T01:34:06;353.90;;;109.53;;
9186;SDS011;7273;48.902;9.410;2023-07-20T01:36:37;473.55;;;134.52;;
9186;SDS011;7273;48.902;9.410;2023-07-20T01:39:03;464.75;;;132.02;;
9186;SDS011;7273;48.902;9.410;2023-07-20T01:41:31;443.05;;;127.78;;
9186;SDS011;7273;48.902;9.410;2023-07-20T01:43:58;455.63;;;129.95;;
9186;SDS011;7273;48.902;9.410;2023-07-20T01:46:27;461.40;;;131.98;;
9186;SDS011;7273;48.902;9.410;2023-07-20T01:48:53;479.67;;;135.98;;
9186;SDS011;7273;48.902;9.410;2023-07-20T01:51:19;485.88;;;137.70;;
9186;SDS011;7273;48.902;9.410;2023-07-20T01:53:44;486.38;;;136.68;;
9186;SDS011;7273;48.902;9.410;2023-07-20T01:56:10;486.52;;;137.73;;
9186;SDS011;7273;48.902;9.410;2023-07-20T01:58:37;495.38;;;139.93;;
9186;SDS011;7273;48.902;9.410;2023-07-20T02:01:02;499.63;;;140.75;;
9186;SDS011;7273;48.902;9.410;2023-07-20T02:03:28;502.35;;;141.68;;
9186;SDS011;7273;48.902;9.410;2023-07-20T02:05:53;503.23;;;141.55;;
9186;SDS011;7273;48.902;9.410;2023-07-20T02:08:19;512.45;;;142.00;;
9186;SDS011;7273;48.902;9.410;2023-07-20T02:10:48;488.75;;;139.10;;
9186;SDS011;7273;48.902;9.410;2023-07-20T02:13:14;508.60;;;143.43;;
9186;SDS011;7273;48.902;9.410;2023-07-20T02:15:39;522.83;;;146.30;;
9186;SDS011;7273;48.902;9.410;2023-07-20T02:18:05;543.92;;;150.60;;
9186;SDS011;7273;48.902;9.410;2023-07-20T02:20:31;586.60;;;161.48;;
9186;SDS011;7273;48.902;9.410;2023-07-20T02:22:56;646.17;;;180.45;;
9186;SDS011;7273;48.902;9.410;2023-07-20T02:25:22;718.47;;;202.27;;
9186;SDS011;7273;48.902;9.410;2023-07-20T02:27:47;737.17;;;209.00;;
9186;SDS011;7273;48.902;9.410;2023-07-20T02:30:12;846.20;;;240.02;;
9186;SDS011;7273;48.902;9.410;2023-07-20T02:32:38;845.95;;;240.52;;
9186;SDS011;7273;48.902;9.410;2023-07-20T02:35:04;851.17;;;240.93;;
9186;SDS011;7273;48.902;9.410;2023-07-20T02:37:30;891.55;;;253.13;;
9186;SDS011;7273;48.902;9.410;2023-07-20T02:39:55;929.03;;;264.30;;
9186;SDS011;7273;48.902;9.410;2023-07-20T02:42:21;907.58;;;258.35;;
9186;SDS011;7273;48.902;9.410;2023-07-20T02:44:48;899.10;;;254.70;;
9186;SDS011;7273;48.902;9.410;2023-07-20T02:47:14;887.58;;;252.55;;
9186;SDS011;7273;48.902;9.410;2023-07-20T02:49:39;831.38;;;235.07;;
9186;SDS011;7273;48.902;9.410;2023-07-20T02:52:05;774.97;;;218.10;;
9186;SDS011;7273;48.902;9.410;2023-07-20T02:54:30;793.60;;;219.82;;
9186;SDS011;7273;48.902;9.410;2023-07-20T02:56:56;805.38;;;226.00;;
9186;SDS011;7273;48.902;9.410;2023-07-20T02:59:21;816.78;;;230.10;;
9186;SDS011;7273;48.902;9.410;2023-07-20T03:01:47;807.38;;;227.02;;
9186;SDS011;7273;48.902;9.410;2023-07-20T03:04:12;807.33;;;226.20;;
9186;SDS011;7273;48.902;9.410;2023-07-20T03:06:38;800.88;;;224.73;;
9186;SDS011;7273;48.902;9.410;2023-07-20T03:09:03;818.13;;;229.90;;
9186;SDS011;7273;48.902;9.410;2023-07-20T03:11:29;819.25;;;229.70;;
9186;SDS011;7273;48.902;9.410;2023-07-20T03:13:55;815.80;;;226.15;;
9186;SDS011;7273;48.902;9.410;2023-07-20T03:16:21;799.03;;;223.85;;
9186;SDS011;7273;48.902;9.410;2023-07-20T03:18:46;771.60;;;215.00;;
9186;SDS011;7273;48.902;9.410;2023-07-20T03:21:12;796.40;;;222.95;;
9186;SDS011;7273;48.902;9.410;2023-07-20T03:23:38;788.28;;;220.10;;
9186;SDS011;7273;48.902;9.410;2023-07-20T03:26:04;817.00;;;228.25;;
9186;SDS011;7273;48.902;9.410;2023-07-20T03:28:30;813.22;;;227.07;;
9186;SDS011;7273;48.902;9.410;2023-07-20T03:30:55;842.88;;;237.80;;
9186;SDS011;7273;48.902;9.410;2023-07-20T03:33:25;820.40;;;229.07;;
9186;SDS011;7273;48.902;9.410;2023-07-20T03:35:52;830.50;;;231.27;;
9186;SDS011;7273;48.902;9.410;2023-07-20T03:38:18;826.95;;;231.05;;
9186;SDS011;7273;48.902;9.410;2023-07-20T03:40:53;881.53;;;247.70;;
9186;SDS011;7273;48.902;9.410;2023-07-20T03:43:24;861.00;;;242.18;;
9186;SDS011;7273;48.902;9.410;2023-07-20T03:45:51;872.78;;;243.15;;
9186;SDS011;7273;48.902;9.410;2023-07-20T03:48:17;867.85;;;244.02;;
9186;SDS011;7273;48.902;9.410;2023-07-20T03:50:45;848.10;;;238.77;;
9186;SDS011;7273;48.902;9.410;2023-07-20T03:53:11;846.22;;;240.05;;
9186;SDS011;7273;48.902;9.410;2023-07-20T03:55:40;832.35;;;238.25;;
9186;SDS011;7273;48.902;9.410;2023-07-20T03:58:07;854.17;;;245.20;;
9186;SDS011;7273;48.902;9.410;2023-07-20T04:00:33;876.92;;;252.55;;
9186;SDS011;7273;48.902;9.410;2023-07-20T04:02:59;898.97;;;259.80;;
9186;SDS011;7273;48.902;9.410;2023-07-20T04:05:24;908.70;;;261.88;;
9186;SDS011;7273;48.902;9.410;2023-07-20T04:07:50;921.53;;;260.55;;
9186;SDS011;7273;48.902;9.410;2023-07-20T04:10:16;928.28;;;269.40;;
9186;SDS011;7273;48.902;9.410;2023-07-20T04:12:42;961.53;;;276.83;;
9186;SDS011;7273;48.902;9.410;2023-07-20T04:15:08;959.70;;;276.27;;
9186;SDS011;7273;48.902;9.410;2023-07-20T04:17:34;963.75;;;278.60;;
9186;SDS011;7273;48.902;9.410;2023-07-20T04:20:00;953.30;;;276.20;;
9186;SDS011;7273;48.902;9.410;2023-07-20T04:22:26;947.13;;;274.15;;
9186;SDS011;7273;48.902;9.410;2023-07-20T04:24:52;964.80;;;278.73;;
9186;SDS011;7273;48.902;9.410;2023-07-20T04:27:17;954.17;;;275.20;;
9186;SDS011;7273;48.902;9.410;2023-07-20T04:29:43;954.40;;;275.10;;
9186;SDS011;7273;48.902;9.410;2023-07-20T04:32:08;972.78;;;279.85;;
9186;SDS011;7273;48.902;9.410;2023-07-20T04:34:34;982.38;;;281.90;;
9186;SDS011;7273;48.902;9.410;2023-07-20T04:37:02;998.92;;;283.77;;
9186;SDS011;7273;48.902;9.410;2023-07-20T04:39:28;990.95;;;286.10;;
9186;SDS011;7273;48.902;9.410;2023-07-20T04:41:53;999.60;;;288.08;;
9186;SDS011;7273;48.902;9.410;2023-07-20T04:44:19;995.17;;;286.25;;
9186;SDS011;7273;48.902;9.410;2023-07-20T04:46:44;988.25;;;284.92;;
9186;SDS011;7273;48.902;9.410;2023-07-20T04:49:10;988.67;;;282.25;;
9186;SDS011;7273;48.902;9.410;2023-07-20T04:51:37;992.83;;;285.83;;
9186;SDS011;7273;48.902;9.410;2023-07-20T04:54:03;1010.58;;;290.13;;
9186;SDS011;7273;48.902;9.410;2023-07-20T04:56:28;1033.03;;;295.95;;
9186;SDS011;7273;48.902;9.410;2023-07-20T04:58:54;1045.90;;;301.17;;
9186;SDS011;7273;48.902;9.410;2023-07-20T05:01:19;1034.80;;;297.95;;
9186;SDS011;7273;48.902;9.410;2023-07-20T05:03:45;1041.50;;;299.65;;
9186;SDS011;7273;48.902;9.410;2023-07-20T05:06:10;1047.72;;;300.92;;
9186;SDS011;7273;48.902;9.410;2023-07-20T05:08:36;1042.90;;;301.35;;
9186;SDS011;7273;48.902;9.410;2023-07-20T05:11:01;1045.45;;;301.20;;
9186;SDS011;7273;48.902;9.410;2023-07-20T05:13:26;1031.93;;;296.92;;
9186;SDS011;7273;48.902;9.410;2023-07-20T05:15:52;1018.38;;;294.15;;
9186;SDS011;7273;48.902;9.410;2023-07-20T05:18:18;1029.38;;;298.55;;
9186;SDS011;7273;48.902;9.410;2023-07-20T05:20:45;1084.05;;;315.60;;
9186;SDS011;7273;48.902;9.410;2023-07-20T05:23:11;956.55;;;279.73;;
9186;SDS011;7273;48.902;9.410;2023-07-20T05:25:36;1026.78;;;299.95;;
9186;SDS011;7273;48.902;9.410;2023-07-20T05:28:02;3.97;;;2.38;;
9186;SDS011;7273;48.902;9.410;2023-07-20T05:30:27;16.38;;;4.78;;
9186;SDS011;7273;48.902;9.410;2023-07-20T05:32:54;3.72;;;1.88;;
9186;SDS011;7273;48.902;9.410;2023-07-20T05:35:19;4.40;;;2.15;;
9186;SDS011;7273;48.902;9.410;2023-07-20T05:37:45;5.60;;;3.22;;
9186;SDS011;7273;48.902;9.410;2023-07-20T05:40:11;8.52;;;3.22;;
9186;SDS011;7273;48.902;9.410;2023-07-20T05:42:40;0.65;;;0.40;;
9186;SDS011;7273;48.902;9.410;2023-07-20T05:45:06;4.32;;;2.38;;
9186;SDS011;7273;48.902;9.410;2023-07-20T05:47:32;8.25;;;3.03;;
9186;SDS011;7273;48.902;9.410;2023-07-20T05:49:57;6.03;;;2.97;;
9186;SDS011;7273;48.902;9.410;2023-07-20T05:52:23;5.90;;;2.75;;
9186;SDS011;7273;48.902;9.410;2023-07-20T05:54:48;5.15;;;2.47;;
9186;SDS011;7273;48.902;9.410;2023-07-20T05:57:13;6.95;;;3.17;;
9186;SDS011;7273;48.902;9.410;2023-07-20T05:59:39;7.20;;;3.15;;
9186;SDS011;7273;48.902;9.410;2023-07-20T06:02:05;5.85;;;2.78;;
9186;SDS011;7273;48.902;9.410;2023-07-20T06:04:33;4.32;;;2.38;;
9186;SDS011;7273;48.902;9.410;2023-07-20T06:06:58;5.88;;;2.80;;
9186;SDS011;7273;48.902;9.410;2023-07-20T06:09:24;4.05;;;2.25;;
9186;SDS011;7273;48.902;9.410;2023-07-20T06:11:49;6.25;;;2.40;;
9186;SDS011;7273;48.902;9.410;2023-07-20T06:14:15;1.60;;;0.90;;
9186;SDS011;7273;48.902;9.410;2023-07-20T06:16:40;7.32;;;0.85;;
9186;SDS011;7273;48.902;9.410;2023-07-20T06:19:06;4.57;;;0.80;;
9186;SDS011;7273;48.902;9.410;2023-07-20T06:21:31;1.60;;;0.57;;
9186;SDS011;7273;48.902;9.410;2023-07-20T06:23:56;0.63;;;0.60;;
9186;SDS011;7273;48.902;9.410;2023-07-20T06:26:22;2.00;;;1.00;;
9186;SDS011;7273;48.902;9.410;2023-07-20T06:28:48;1.63;;;0.60;;
9186;SDS011;7273;48.902;9.410;2023-07-20T06:31:13;0.52;;;0.45;;
9186;SDS011;7273;48.902;9.410;2023-07-20T06:33:39;2.95;;;0.70;;
9186;SDS011;7273;48.902;9.410;2023-07-20T06:36:04;1.30;;;0.77;;
9186;SDS011;7273;48.902;9.410;2023-07-20T06:38:29;5.85;;;2.75;;
9186;SDS011;7273;48.902;9.410;2023-07-20T06:40:55;5.40;;;3.00;;
9186;SDS011;7273;48.902;9.410;2023-07-20T06:43:20;4.70;;;2.60;;
9186;SDS011;7273;48.902;9.410;2023-07-20T06:45:50;4.40;;;2.15;;
9186;SDS011;7273;48.902;9.410;2023-07-20T06:48:17;6.07;;;3.30;;
9186;SDS011;7273;48.902;9.410;2023-07-20T06:50:43;5.25;;;2.50;;
9186;SDS011;7273;48.902;9.410;2023-07-20T06:53:08;4.43;;;2.38;;
9186;SDS011;7273;48.902;9.410;2023-07-20T06:55:33;4.93;;;2.38;;
9186;SDS011;7273;48.902;9.410;2023-07-20T06:57:59;4.13;;;2.17;;
9186;SDS011;7273;48.902;9.410;2023-07-20T07:00:24;3.40;;;2.00;;
9186;SDS011;7273;48.902;9.410;2023-07-20T07:02:50;3.42;;;1.88;;
9186;SDS011;7273;48.902;9.410;2023-07-20T07:05:15;7.00;;;2.55;;
9186;SDS011;7273;48.902;9.410;2023-07-20T07:07:41;3.20;;;1.73;;
9186;SDS011;7273;48.902;9.410;2023-07-20T07:10:07;4.43;;;2.35;;
9186;SDS011;7273;48.902;9.410;2023-07-20T07:12:33;7.28;;;2.38;;
9186;SDS011;7273;48.902;9.410;2023-07-20T07:15:00;8.82;;;2.47;;
9186;SDS011;7273;48.902;9.410;2023-07-20T07:17:25;5.63;;;2.90;;
9186;SDS011;7273;48.902;9.410;2023-07-20T07:19:51;6.05;;;2.95;;
9186;SDS011;7273;48.902;9.410;2023-07-20T07:22:19;7.50;;;3.40;;
9186;SDS011;7273;48.902;9.410;2023-07-20T07:24:46;8.15;;;3.28;;
9186;SDS011;7273;48.902;9.410;2023-07-20T07:27:11;8.73;;;4.13;;
9186;SDS011;7273;48.902;9.410;2023-07-20T07:29:37;9.15;;;3.67;;
9186;SDS011;7273;48.902;9.410;2023-07-20T07:32:02;9.30;;;4.20;;
9186;SDS011;7273;48.902;9.410;2023-07-20T07:34:28;8.00;;;3.45;;
9186;SDS011;7273;48.902;9.410;2023-07-20T07:36:54;10.73;;;5.18;;
9186;SDS011;7273;48.902;9.410;2023-07-20T07:39:19;10.07;;;5.18;;
9186;SDS011;7273;48.902;9.410;2023-07-20T07:41:45;11.10;;;5.45;;
9186;SDS011;7273;48.902;9.410;2023-07-20T07:44:10;11.52;;;4.80;;
9186;SDS011;7273;48.902;9.410;2023-07-20T07:46:36;1.17;;;0.93;;
9186;SDS011;7273;48.902;9.410;2023-07-20T07:49:02;237.82;;;69.20;;
9186;SDS011;7273;48.902;9.410;2023-07-20T07:51:27;420.60;;;124.20;;
9186;SDS011;7273;48.902;9.410;2023-07-20T07:53:53;457.27;;;133.82;;
9186;SDS011;7273;48.902;9.410;2023-07-20T07:56:19;450.77;;;132.10;;
9186;SDS011;7273;48.902;9.410;2023-07-20T07:58:48;696.33;;;198.40;;
9186;SDS011;7273;48.902;9.410;2023-07-20T08:01:14;682.28;;;196.90;;
9186;SDS011;7273;48.902;9.410;2023-07-20T08:03:39;962.17;;;269.77;;
9186;SDS011;7273;48.902;9.410;2023-07-20T08:06:05;931.72;;;263.27;;
9186;SDS011;7273;48.902;9.410;2023-07-20T08:08:31;996.08;;;278.83;;
9186;SDS011;7273;48.902;9.410;2023-07-20T08:10:58;932.65;;;257.65;;
9186;SDS011;7273;48.902;9.410;2023-07-20T08:13:24;982.13;;;274.58;;
9186;SDS011;7273;48.902;9.410;2023-07-20T08:15:50;961.88;;;268.45;;
9186;SDS011;7273;48.902;9.410;2023-07-20T08:18:19;976.17;;;271.20;;
9186;SDS011;7273;48.902;9.410;2023-07-20T08:20:45;1010.88;;;281.60;;
9186;SDS011;7273;48.902;9.410;2023-07-20T08:23:11;1020.22;;;283.15;;
9186;SDS011;7273;48.902;9.410;2023-07-20T08:25:37;1035.45;;;288.40;;
9186;SDS011;7273;48.902;9.410;2023-07-20T08:28:04;1030.97;;;286.15;;
9186;SDS011;7273;48.902;9.410;2023-07-20T08:30:39;1041.35;;;289.27;;
9186;SDS011;7273;48.902;9.410;2023-07-20T08:33:09;1072.30;;;298.40;;
9186;SDS011;7273;48.902;9.410;2023-07-20T08:35:41;1056.03;;;295.25;;
9186;SDS011;7273;48.902;9.410;2023-07-20T08:38:06;1086.18;;;304.13;;
9186;SDS011;7273;48.902;9.410;2023-07-20T08:40:33;1103.35;;;308.10;;
9186;SDS011;7273;48.902;9.410;2023-07-20T08:43:03;1116.60;;;312.88;;
9186;SDS011;7273;48.902;9.410;2023-07-20T08:45:29;313.17;;;103.82;;
9186;SDS011;7273;48.902;9.410;2023-07-20T08:47:58;432.50;;;126.95;;
9186;SDS011;7273;48.902;9.410;2023-07-20T08:50:25;589.00;;;164.35;;
9186;SDS011;7273;48.902;9.410;2023-07-20T08:52:52;616.33;;;172.48;;
9186;SDS011;7273;48.902;9.410;2023-07-20T08:55:20;292.73;;;91.85;;
9186;SDS011;7273;48.902;9.410;2023-07-20T08:57:47;65.28;;;38.00;;
9186;SDS011;7273;48.902;9.410;2023-07-20T09:00:16;324.67;;;105.82;;
9186;SDS011;7273;48.902;9.410;2023-07-20T09:02:44;344.55;;;110.47;;
9186;SDS011;7273;48.902;9.410;2023-07-20T09:05:10;174.00;;;76.05;;
9186;SDS011;7273;48.902;9.410;2023-07-20T09:07:39;274.60;;;98.88;;
9186;SDS011;7273;48.902;9.410;2023-07-20T09:10:07;364.98;;;114.60;;
9186;SDS011;7273;48.902;9.410;2023-07-20T09:12:37;590.80;;;171.98;;
9186;SDS011;7273;48.902;9.410;2023-07-20T09:15:03;401.20;;;123.40;;
9186;SDS011;7273;48.902;9.410;2023-07-20T09:17:30;625.67;;;180.25;;
9186;SDS011;7273;48.902;9.410;2023-07-20T09:19:55;323.15;;;104.90;;
9186;SDS011;7273;48.902;9.410;2023-07-20T09:22:21;190.35;;;72.05;;
9186;SDS011;7273;48.902;9.410;2023-07-20T09:24:47;437.42;;;131.43;;
9186;SDS011;7273;48.902;9.410;2023-07-20T09:27:12;251.53;;;80.83;;
9186;SDS011;7273;48.902;9.410;2023-07-20T09:29:47;253.75;;;95.78;;
9186;SDS011;7273;48.902;9.410;2023-07-20T09:32:17;384.25;;;119.35;;
9186;SDS011;7273;48.902;9.410;2023-07-20T09:34:44;418.30;;;125.03;;
9186;SDS011;7273;48.902;9.410;2023-07-20T09:37:10;429.40;;;129.85;;
9186;SDS011;7273;48.902;9.410;2023-07-20T09:39:42;368.75;;;112.38;;
9186;SDS011;7273;48.902;9.410;2023-07-20T09:42:10;91.78;;;31.75;;
9186;SDS011;7273;48.902;9.410;2023-07-20T09:44:36;0.50;;;0.50;;
9186;SDS011;7273;48.902;9.410;2023-07-20T09:47:03;45.05;;;19.90;;
9186;SDS011;7273;48.902;9.410;2023-07-20T09:49:29;182.82;;;68.05;;
9186;SDS011;7273;48.902;9.410;2023-07-20T09:51:54;181.93;;;71.03;;
9186;SDS011;7273;48.902;9.410;2023-07-20T09:54:22;313.73;;;103.97;;
9186;SDS011;7273;48.902;9.410;2023-07-20T09:56:50;47.88;;;20.50;;
9186;SDS011;7273;48.902;9.410;2023-07-20T09:59:16;341.17;;;111.75;;
9186;SDS011;7273;48.902;9.410;2023-07-20T10:01:41;459.50;;;136.73;;
9186;SDS011;7273;48.902;9.410;2023-07-20T10:04:09;474.75;;;138.23;;
9186;SDS011;7273;48.902;9.410;2023-07-20T10:06:36;467.63;;;138.63;;
9186;SDS011;7273;48.902;9.410;2023-07-20T10:09:07;458.67;;;136.30;;
9186;SDS011;7273;48.902;9.410;2023-07-20T10:11:35;461.73;;;136.73;;
9186;SDS011;7273;48.902;9.410;2023-07-20T10:14:04;458.73;;;136.15;;
9186;SDS011;7273;48.902;9.410;2023-07-20T10:16:36;517.28;;;150.02;;
9186;SDS011;7273;48.902;9.410;2023-07-20T10:19:07;364.42;;;114.80;;
9186;SDS011;7273;48.902;9.410;2023-07-20T10:21:42;307.20;;;98.07;;
9186;SDS011;7273;48.902;9.410;2023-07-20T10:24:13;313.63;;;105.65;;
9186;SDS011;7273;48.902;9.410;2023-07-20T10:26:39;366.02;;;116.82;;
9186;SDS011;7273;48.902;9.410;2023-07-20T10:29:05;328.38;;;108.90;;
9186;SDS011;7273;48.902;9.410;2023-07-20T10:31:31;413.45;;;124.85;;
9186;SDS011;7273;48.902;9.410;2023-07-20T10:33:58;288.60;;;102.30;;
9186;SDS011;7273;48.902;9.410;2023-07-20T10:36:24;447.80;;;134.65;;
9186;SDS011;7273;48.902;9.410;2023-07-20T10:38:54;467.33;;;137.63;;
9186;SDS011;7273;48.902;9.410;2023-07-20T10:44:00;429.23;;;128.13;;
9186;SDS011;7273;48.902;9.410;2023-07-20T10:51:43;544.70;;;156.10;;
9186;SDS011;7273;48.902;9.410;2023-07-20T10:56:49;571.85;;;163.93;;
9186;SDS011;7273;48.902;9.410;2023-07-20T11:01:44;438.10;;;130.50;;
9186;SDS011;7273;48.902;9.410;2023-07-20T11:04:10;505.58;;;146.60;;
9186;SDS011;7273;48.902;9.410;2023-07-20T11:06:36;579.35;;;165.63;;
9186;SDS011;7273;48.902;9.410;2023-07-20T11:09:09;430.73;;;130.70;;
9186;SDS011;7273;48.902;9.410;2023-07-20T11:11:39;518.92;;;150.55;;
9186;SDS011;7273;48.902;9.410;2023-07-20T11:14:06;485.02;;;143.43;;
9186;SDS011;7273;48.902;9.410;2023-07-20T11:16:33;457.48;;;137.73;;
9186;SDS011;7273;48.902;9.410;2023-07-20T11:19:03;444.02;;;132.13;;
9186;SDS011;7273;48.902;9.410;2023-07-20T11:21:36;280.52;;;103.28;;
9186;SDS011;7273;48.902;9.410;2023-07-20T11:24:04;424.63;;;128.57;;
9186;SDS011;7273;48.902;9.410;2023-07-20T11:26:30;406.08;;;125.72;;
9186;SDS011;7273;48.902;9.410;2023-07-20T11:28:56;455.55;;;137.98;;
9186;SDS011;7273;48.902;9.410;2023-07-20T11:31:21;471.05;;;140.23;;
9186;SDS011;7273;48.902;9.410;2023-07-20T11:33:46;339.05;;;110.35;;
9186;SDS011;7273;48.902;9.410;2023-07-20T11:36:12;520.45;;;151.32;;
9186;SDS011;7273;48.902;9.410;2023-07-20T11:38:39;511.60;;;148.27;;
9186;SDS011;7273;48.902;9.410;2023-07-20T11:41:08;596.83;;;171.95;;
9186;SDS011;7273;48.902;9.410;2023-07-20T11:43:33;429.25;;;129.43;;
9186;SDS011;7273;48.902;9.410;2023-07-20T11:45:59;493.67;;;145.65;;
9186;SDS011;7273;48.902;9.410;2023-07-20T11:48:24;494.40;;;143.95;;
9186;SDS011;7273;48.902;9.410;2023-07-20T11:50:49;530.55;;;152.00;;
9186;SDS011;7273;48.902;9.410;2023-07-20T11:53:15;570.33;;;162.57;;
9186;SDS011;7273;48.902;9.410;2023-07-20T11:55:41;629.67;;;177.93;;
9186;SDS011;7273;48.902;9.410;2023-07-20T11:58:07;710.50;;;201.00;;
9186;SDS011;7273;48.902;9.410;2023-07-20T12:00:34;227.23;;;73.75;;
9186;SDS011;7273;48.902;9.410;2023-07-20T12:03:00;419.98;;;127.80;;
9186;SDS011;7273;48.902;9.410;2023-07-20T12:05:26;222.48;;;72.60;;
9186;SDS011;7273;48.902;9.410;2023-07-20T12:07:51;81.50;;;41.10;;
9186;SDS011;7273;48.902;9.410;2023-07-20T12:10:23;17.65;;;10.98;;
9186;SDS011;7273;48.902;9.410;2023-07-20T12:12:50;6.18;;;2.80;;
9186;SDS011;7273;48.902;9.410;2023-07-20T12:17:49;42.85;;;27.02;;
9186;SDS011;7273;48.902;9.410;2023-07-20T12:20:26;143.13;;;69.80;;
9186;SDS011;7273;48.902;9.410;2023-07-20T12:22:58;152.45;;;73.00;;
9186;SDS011;7273;48.902;9.410;2023-07-20T12:28:09;242.50;;;96.05;;
9186;SDS011;7273;48.902;9.410;2023-07-20T12:30:36;55.38;;;32.15;;
9186;SDS011;7273;48.902;9.410;2023-07-20T12:33:02;181.00;;;81.93;;
9186;SDS011;7273;48.902;9.410;2023-07-20T12:35:28;175.48;;;82.32;;
9186;SDS011;7273;48.902;9.410;2023-07-20T12:37:55;272.27;;;104.03;;
9186;SDS011;7273;48.902;9.410;2023-07-20T12:40:20;255.70;;;100.82;;
9186;SDS011;7273;48.902;9.410;2023-07-20T12:42:46;158.40;;;76.43;;
9186;SDS011;7273;48.902;9.410;2023-07-20T12:45:11;196.18;;;78.63;;
9186;SDS011;7273;48.902;9.410;2023-07-20T12:47:38;418.48;;;130.57;;
9186;SDS011;7273;48.902;9.410;2023-07-20T12:50:04;40.03;;;28.05;;
9186;SDS011;7273;48.902;9.410;2023-07-20T12:52:31;250.93;;;93.53;;
9186;SDS011;7273;48.902;9.410;2023-07-20T12:54:57;298.13;;;108.43;;
9186;SDS011;7273;48.902;9.410;2023-07-20T12:57:23;103.22;;;56.40;;
9186;SDS011;7273;48.902;9.410;2023-07-20T12:59:48;30.75;;;16.42;;
9186;SDS011;7273;48.902;9.410;2023-07-20T13:02:14;173.30;;;79.10;;
9186;SDS011;7273;48.902;9.410;2023-07-20T13:04:39;59.72;;;39.65;;
9186;SDS011;7273;48.902;9.410;2023-07-20T13:07:04;196.00;;;86.07;;
9186;SDS011;7273;48.902;9.410;2023-07-20T13:09:30;168.05;;;76.10;;
9186;SDS011;7273;48.902;9.410;2023-07-20T13:11:55;262.55;;;90.50;;
9186;SDS011;7273;48.902;9.410;2023-07-20T13:14:22;237.52;;;96.43;;
9186;SDS011;7273;48.902;9.410;2023-07-20T13:16:47;330.45;;;114.03;;
9186;SDS011;7273;48.902;9.410;2023-07-20T13:19:13;315.02;;;110.82;;
9186;SDS011;7273;48.902;9.410;2023-07-20T13:21:39;119.57;;;54.58;;
9186;SDS011;7273;48.902;9.410;2023-07-20T13:24:05;166.38;;;65.10;;
9186;SDS011;7273;48.902;9.410;2023-07-20T13:26:30;21.73;;;7.57;;
9186;SDS011;7273;48.902;9.410;2023-07-20T13:28:56;2.25;;;1.00;;
9186;SDS011;7273;48.902;9.410;2023-07-20T13:31:22;0.85;;;0.70;;
9186;SDS011;7273;48.902;9.410;2023-07-20T13:33:48;2.08;;;0.73;;
9186;SDS011;7273;48.902;9.410;2023-07-20T13:36:14;0.93;;;0.63;;
9186;SDS011;7273;48.902;9.410;2023-07-20T13:38:39;3.58;;;0.80;;
9186;SDS011;7273;48.902;9.410;2023-07-20T13:41:05;2.05;;;0.88;;
9186;SDS011;7273;48.902;9.410;2023-07-20T13:43:30;0.60;;;0.60;;
9186;SDS011;7273;48.902;9.410;2023-07-20T13:45:55;0.98;;;0.75;;
9186;SDS011;7273;48.902;9.410;2023-07-20T13:48:21;0.70;;;0.40;;
9186;SDS011;7273;48.902;9.410;2023-07-20T13:50:48;0.98;;;0.47;;
9186;SDS011;7273;48.902;9.410;2023-07-20T13:53:13;0.80;;;0.70;;
9186;SDS011;7273;48.902;9.410;2023-07-20T13:55:39;2.72;;;0.60;;
9186;SDS011;7273;48.902;9.410;2023-07-20T13:58:04;0.90;;;0.50;;
9186;SDS011;7273;48.902;9.410;2023-07-20T14:00:30;1.98;;;0.80;;
9186;SDS011;7273;48.902;9.410;2023-07-20T14:02:58;0.60;;;0.40;;
9186;SDS011;7273;48.902;9.410;2023-07-20T14:05:24;1.13;;;0.50;;
9186;SDS011;7273;48.902;9.410;2023-07-20T14:07:50;1.02;;;0.68;;
9186;SDS011;7273;48.902;9.410;2023-07-20T14:10:16;1.58;;;0.60;;
9186;SDS011;7273;48.902;9.410;2023-07-20T14:12:42;2.47;;;0.75;;
9186;SDS011;7273;48.902;9.410;2023-07-20T14:15:07;0.60;;;0.47;;
9186;SDS011;7273;48.902;9.410;2023-07-20T14:17:34;1.55;;;0.68;;
9186;SDS011;7273;48.902;9.410;2023-07-20T14:20:00;1.60;;;0.63;;
9186;SDS011;7273;48.902;9.410;2023-07-20T14:22:25;2.28;;;0.60;;
9186;SDS011;7273;48.902;9.410;2023-07-20T14:24:51;4.28;;;0.57;;
9186;SDS011;7273;48.902;9.410;2023-07-20T14:27:16;1.30;;;0.60;;
9186;SDS011;7273;48.902;9.410;2023-07-20T14:29:42;14.40;;;1.35;;
9186;SDS011;7273;48.902;9.410;2023-07-20T14:32:07;0.73;;;0.55;;
9186;SDS011;7273;48.902;9.410;2023-07-20T14:34:33;1.63;;;0.50;;
9186;SDS011;7273;48.902;9.410;2023-07-20T14:37:01;0.85;;;0.47;;
9186;SDS011;7273;48.902;9.410;2023-07-20T14:39:26;2.47;;;0.90;;
9186;SDS011;7273;48.902;9.410;2023-07-20T14:41:52;1.20;;;0.75;;
9186;SDS011;7273;48.902;9.410;2023-07-20T14:44:17;3.78;;;0.70;;
9186;SDS011;7273;48.902;9.410;2023-07-20T14:46:43;0.55;;;0.47;;
9186;SDS011;7273;48.902;9.410;2023-07-20T14:49:08;1.15;;;0.70;;
9186;SDS011;7273;48.902;9.410;2023-07-20T14:51:34;1.33;;;0.43;;
9186;SDS011;7273;48.902;9.410;2023-07-20T14:54:01;4.53;;;0.70;;
9186;SDS011;7273;48.902;9.410;2023-07-20T14:56:27;2.00;;;0.57;;
9186;SDS011;7273;48.902;9.410;2023-07-20T14:58:52;2.03;;;0.60;;